Time;durP1;ratioP1;P1;durP2;ratioP2;P2;SDS_P1;SDS_P2;PMS_P1;PMS_P2;Temp;Humidity;BMP_temperature;BMP_pressure;BME280_temperature;BME280_humidity;BME280_pressure;Samples;Min_cycle;Max_cycle;Signal;HPM_P1;HPM_P2
2021/05/03 05:11:58;;;;;;;7.45;4.53;;;;;;;;;;6152253;23;20041;-73
2021/05/03 05:14:24;;;;;;;7.32;4.35;;;;;;;;;;6155891;23;20016;-75
2021/05/03 05:16:53;;;;;;;8.20;5.10;;;;;;;;;;6154754;23;20029;-72
2021/05/03 05:19:19;;;;;;;7.80;4.78;;;;;;;;;;6154942;23;20016;-70
2021/05/03 05:21:45;;;;;;;7.70;4.70;;;;;;;;;;6155023;23;20021;-70
2021/05/03 05:24:11;;;;;;;7.68;5.38;;;;;;;;;;6155517;23;20338;-71
2021/05/03 05:26:38;;;;;;;6.80;5.00;;;;;;;;;;6154608;23;20418;-71
2021/05/03 05:29:07;;;;;;;6.93;5.22;;;;;;;;;;6154788;23;20005;-71
2021/05/03 05:31:33;;;;;;;9.07;5.57;;;;;;;;;;6154549;23;20024;-72
2021/05/03 05:33:59;;;;;;;8.43;5.55;;;;;;;;;;6154059;23;20005;-72
2021/05/03 05:36:25;;;;;;;8.68;5.80;;;;;;;;;;6154441;23;20033;-72
2021/05/03 05:38:51;;;;;;;9.30;5.88;;;;;;;;;;6154636;23;20446;-76
2021/05/03 05:41:19;;;;;;;7.80;5.03;;;;;;;;;;6154595;23;20006;-78
2021/05/03 05:43:45;;;;;;;6.90;5.68;;;;;;;;;;6154592;23;20081;-76
2021/05/03 05:46:11;;;;;;;8.23;5.88;;;;;;;;;;6154444;23;20017;-74
2021/05/03 05:48:37;;;;;;;7.95;5.80;;;;;;;;;;6153732;23;20076;-74
2021/05/03 05:51:03;;;;;;;8.20;5.38;;;;;;;;;;6151668;23;20079;-77
2021/05/03 05:53:33;;;;;;;8.55;6.00;;;;;;;;;;6154329;23;20312;-78
2021/05/03 05:55:59;;;;;;;9.27;5.93;;;;;;;;;;6152870;23;20013;-78
2021/05/03 05:58:28;;;;;;;8.52;6.10;;;;;;;;;;6153172;23;20380;-77
2021/05/03 06:00:54;;;;;;;12.25;7.22;;;;;;;;;;6151082;23;20116;-72
2021/05/03 06:03:20;;;;;;;11.52;8.10;;;;;;;;;;6152817;23;20032;-74
2021/05/03 06:05:46;;;;;;;11.63;8.05;;;;;;;;;;6151631;23;20009;-73
2021/05/03 06:08:12;;;;;;;10.45;6.50;;;;;;;;;;6152534;23;20012;-70
2021/05/03 06:10:38;;;;;;;10.13;7.25;;;;;;;;;;6151618;23;20016;-69
2021/05/03 06:13:07;;;;;;;12.50;7.22;;;;;;;;;;6151545;23;20030;-72
2021/05/03 06:15:33;;;;;;;10.38;7.45;;;;;;;;;;6151627;23;20165;-72
2021/05/03 06:17:59;;;;;;;10.55;6.75;;;;;;;;;;6152857;23;20005;-73
2021/05/03 06:20:26;;;;;;;11.65;7.95;;;;;;;;;;6152482;23;20031;-72
2021/05/03 06:22:59;;;;;;;10.45;7.00;;;;;;;;;;6150803;23;20014;-71
2021/05/03 06:25:25;;;;;;;9.75;6.90;;;;;;;;;;6152873;23;20010;-73
2021/05/03 06:27:51;;;;;;;12.05;7.85;;;;;;;;;;6154618;23;20016;-71
2021/05/03 06:30:18;;;;;;;10.10;7.50;;;;;;;;;;6154875;23;20009;-71
2021/05/03 06:32:44;;;;;;;7.95;5.57;;;;;;;;;;6155078;23;20016;-71
2021/05/03 06:35:13;;;;;;;9.75;6.00;;;;;;;;;;6155694;23;20009;-71
2021/05/03 06:37:39;;;;;;;6.53;4.90;;;;;;;;;;6155639;23;20334;-72
2021/05/03 06:40:05;;;;;;;8.93;5.53;;;;;;;;;;6156026;23;20002;-71
2021/05/03 06:42:31;;;;;;;6.15;4.88;;;;;;;;;;6154743;23;20530;-72
2021/05/03 06:44:57;;;;;;;7.00;4.80;;;;;;;;;;6155701;23;20029;-74
2021/05/03 06:47:25;;;;;;;8.55;4.68;;;;;;;;;;6154189;23;20013;-73
2021/05/03 06:49:53;;;;;;;7.35;5.13;;;;;;;;;;6155612;23;20044;-71
2021/05/03 06:52:19;;;;;;;8.10;5.20;;;;;;;;;;6154641;23;20010;-70
2021/05/03 06:54:45;;;;;;;6.07;4.28;;;;;;;;;;6154489;23;20012;-71
2021/05/03 06:57:11;;;;;;;7.03;4.72;;;;;;;;;;6154838;23;20014;-72
2021/05/03 06:59:37;;;;;;;6.00;4.68;;;;;;;;;;6155702;23;20111;-71
2021/05/03 07:02:03;;;;;;;6.90;5.07;;;;;;;;;;6155996;23;20036;-71
2021/05/03 07:04:29;;;;;;;8.35;5.20;;;;;;;;;;6155806;23;20407;-72
2021/05/03 07:06:55;;;;;;;5.40;3.92;;;;;;;;;;6155715;23;20002;-70
2021/05/03 07:09:21;;;;;;;6.72;4.05;;;;;;;;;;6154862;23;20006;-71
2021/05/03 07:11:50;;;;;;;5.97;3.97;;;;;;;;;;6155087;23;20013;-73
2021/05/03 07:14:16;;;;;;;6.60;5.13;;;;;;;;;;6155069;23;20009;-72
2021/05/03 07:19:50;;;;;;;9.00;5.38;;;;;;;;;;6093640;23;20062;-73
2021/05/03 07:22:15;;;;;;;7.32;4.72;;;;;;;;;;6136362;23;20085;-70
2021/05/03 07:24:42;;;;;;;5.93;4.00;;;;;;;;;;6155541;23;20366;-71
2021/05/03 07:27:12;;;;;;;5.15;3.70;;;;;;;;;;6155954;23;20064;-71
2021/05/03 07:29:38;;;;;;;5.15;3.28;;;;;;;;;;6155618;23;20013;-71
2021/05/03 07:32:08;;;;;;;4.82;3.45;;;;;;;;;;6154839;23;20009;-70
2021/05/03 07:34:34;;;;;;;4.90;3.38;;;;;;;;;;6155758;23;20006;-71
2021/05/03 07:37:02;;;;;;;8.80;3.53;;;;;;;;;;6155606;23;20013;-72
2021/05/03 07:39:28;;;;;;;6.78;2.97;;;;;;;;;;6155329;23;20001;-72
2021/05/03 07:57:28;;;;;;;11.75;4.53;;;;;;;;;;6155336;23;20406;-73
2021/05/03 07:59:57;;;;;;;8.55;5.20;;;;;;;;;;6157068;23;20002;-74
2021/05/03 08:02:27;;;;;;;8.38;4.93;;;;;;;;;;6157310;23;20008;-73
2021/05/03 08:04:53;;;;;;;5.97;3.28;;;;;;;;;;6155533;23;20037;-73
2021/05/03 08:11:10;;;;;;;5.95;4.20;;;;;;;;;;6164540;23;20434;-75
2021/05/03 08:17:01;;;;;;;5.60;3.67;;;;;;;;;;6165690;23;20010;-75
2021/05/03 08:19:57;;;;;;;4.57;4.13;;;;;;;;;;6161119;23;20085;-76
2021/05/03 08:29:00;;;;;;;5.95;4.50;;;;;;;;;;6071018;23;20542;-73
2021/05/03 08:50:20;;;;;;;8.18;4.88;;;;;;;;;;5962339;23;20009;-74
2021/05/03 08:52:56;;;;;;;8.55;5.53;;;;;;;;;;6160159;23;20025;-74
2021/05/03 08:58:46;;;;;;;10.80;6.93;;;;;;;;;;6186286;23;20032;-74
2021/05/03 09:04:19;;;;;;;7.97;5.38;;;;;;;;;;6189895;23;20005;-71
2021/05/03 09:07:06;;;;;;;6.65;5.25;;;;;;;;;;6188777;23;20033;-75
2021/05/03 09:10:07;;;;;;;7.80;5.05;;;;;;;;;;6161374;23;20028;-74
2021/05/03 09:12:38;;;;;;;7.00;4.95;;;;;;;;;;6039915;23;20039;-74
2021/05/03 09:15:08;;;;;;;10.35;5.97;;;;;;;;;;6043093;23;20009;-73
2021/05/03 09:17:48;;;;;;;15.15;6.65;;;;;;;;;;6164638;23;20039;-73
2021/05/03 09:23:26;;;;;;;8.73;4.90;;;;;;;;;;6186313;23;20500;-74
2021/05/03 09:26:09;;;;;;;8.75;5.10;;;;;;;;;;6186487;23;20001;-71
2021/05/03 09:28:36;;;;;;;6.47;4.18;;;;;;;;;;6158754;23;20005;-72
2021/05/03 09:31:10;;;;;;;8.32;5.70;;;;;;;;;;6159250;23;20016;-75
2021/05/03 09:33:40;;;;;;;8.95;5.00;;;;;;;;;;6159916;23;20005;-72
2021/05/03 09:36:39;;;;;;;7.07;3.53;;;;;;;;;;6160015;23;20009;-76
2021/05/03 09:42:23;;;;;;;4.82;3.55;;;;;;;;;;6106587;23;20059;-75
2021/05/03 09:45:11;;;;;;;7.43;3.53;;;;;;;;;;6126941;23;20021;-75
2021/05/03 09:51:13;;;;;;;6.13;4.32;;;;;;;;;;6187739;23;20012;-74
2021/05/03 10:00:06;;;;;;;9.30;5.03;;;;;;;;;;6158135;23;20043;-74
2021/05/03 10:05:42;;;;;;;6.05;3.95;;;;;;;;;;6159523;23;20020;-72
2021/05/03 10:11:48;;;;;;;7.95;4.13;;;;;;;;;;6159411;23;20016;-74
2021/05/03 10:14:32;;;;;;;6.85;4.47;;;;;;;;;;6121567;23;20021;-73
2021/05/03 10:20:38;;;;;;;5.50;3.92;;;;;;;;;;6000919;23;20008;-73
2021/05/03 10:23:15;;;;;;;12.00;5.30;;;;;;;;;;6097415;23;20006;-74
2021/05/03 10:38:30;;;;;;;6.03;2.85;;;;;;;;;;6086781;23;20332;-73
2021/05/03 10:41:00;;;;;;;3.03;2.50;;;;;;;;;;6095067;23;20006;-73
2021/05/03 10:43:28;;;;;;;2.55;1.83;;;;;;;;;;6093778;23;20002;-72
2021/05/03 10:52:32;;;;;;;19.48;8.48;;;;;;;;;;6013279;23;20100;-73
2021/05/03 10:55:25;;;;;;;4.25;3.10;;;;;;;;;;6153426;23;20006;-73
2021/05/03 11:08:16;;;;;;;4.72;2.40;;;;;;;;;;6008706;23;20010;-74
2021/05/03 11:14:23;;;;;;;5.97;2.88;;;;;;;;;;6008918;23;20505;-75
2021/05/03 11:17:20;;;;;;;3.85;3.35;;;;;;;;;;6054263;23;20009;-74
2021/05/03 11:23:03;;;;;;;6.07;4.40;;;;;;;;;;6160337;23;20021;-74
2021/05/03 11:25:31;;;;;;;8.45;5.10;;;;;;;;;;6129057;23;20005;-73
2021/05/03 11:28:20;;;;;;;6.05;4.80;;;;;;;;;;6155727;23;20081;-76
2021/05/03 11:30:57;;;;;;;7.03;5.65;;;;;;;;;;6155488;23;20009;-71
2021/05/03 11:34:05;;;;;;;8.02;6.50;;;;;;;;;;6131801;23;20482;-71
2021/05/03 11:36:30;;;;;;;6.43;4.75;;;;;;;;;;6156976;23;20048;-72
2021/05/03 11:46:36;;;;;;;7.72;4.93;;;;;;;;;;6158258;23;20093;-74
2021/05/03 11:49:13;;;;;;;6.28;5.25;;;;;;;;;;6158131;23;20064;-80
2021/05/03 11:51:43;;;;;;;7.03;5.43;;;;;;;;;;6158663;23;20375;-72
2021/05/03 11:54:22;;;;;;;11.32;9.32;;;;;;;;;;6157612;23;20012;-73
2021/05/03 11:56:54;;;;;;;6.63;5.53;;;;;;;;;;6157431;23;20001;-73
2021/05/03 11:59:20;;;;;;;11.55;5.50;;;;;;;;;;6157622;23;20009;-72
2021/05/03 12:01:56;;;;;;;7.30;5.30;;;;;;;;;;6184895;23;20434;-75
2021/05/03 12:04:53;;;;;;;12.05;10.65;;;;;;;;;;6187750;23;20008;-78
2021/05/03 12:16:43;;;;;;;9.65;8.65;;;;;;;;;;6186372;23;20109;-72
2021/05/03 12:26:25;;;;;;;5.00;3.80;;;;;;;;;;5962365;23;20023;-73
2021/05/03 12:29:36;;;;;;;9.60;6.95;;;;;;;;;;5957996;24;20012;-73
2021/05/03 12:32:50;;;;;;;;;;;;;;;;;;;;;
2021/05/03 12:35:42;;;;;;;7.72;4.18;;;;;;;;;;5956662;24;20039;-74
2021/05/03 12:41:30;;;;;;;8.40;4.32;;;;;;;;;;6026957;23;20027;-71
2021/05/03 12:44:09;;;;;;;9.25;3.28;;;;;;;;;;6131993;23;20009;-72
2021/05/03 12:46:56;;;;;;;8.40;3.80;;;;;;;;;;6162499;23;20012;-72
2021/05/03 12:58:51;;;;;;;10.95;3.65;;;;;;;;;;6202326;23;20009;-73
2021/05/03 13:33:04;;;;;;;8.95;3.92;;;;;;;;;;6008789;23;20074;-73
2021/05/03 13:39:27;;;;;;;32.42;21.48;;;;;;;;;;6011623;23;20549;-74
2021/05/03 13:48:38;;;;;;;10.25;7.80;;;;;;;;;;6017546;23;20445;-73
2021/05/03 13:54:45;;;;;;;6.90;3.42;;;;;;;;;;6009582;23;20097;-73
2021/05/03 13:57:23;;;;;;;13.07;6.43;;;;;;;;;;6113769;23;20025;-75
2021/05/03 14:00:03;;;;;;;9.55;5.50;;;;;;;;;;6166466;23;20001;-73
2021/05/03 14:02:33;;;;;;;10.38;6.15;;;;;;;;;;6157694;23;20005;-73
2021/05/03 14:05:28;;;;;;;4.68;3.60;;;;;;;;;;6158000;23;20067;-73
2021/05/03 14:17:18;;;;;;;33.42;17.25;;;;;;;;;;6183890;23;20072;-73
2021/05/03 14:22:55;;;;;;;3.58;2.30;;;;;;;;;;6185909;23;20043;-73
2021/05/03 14:25:30;;;;;;;11.73;5.13;;;;;;;;;;6159717;23;20057;-74
2021/05/03 14:34:37;;;;;;;8.05;3.75;;;;;;;;;;6067050;23;20014;-74
2021/05/03 14:37:35;;;;;;;4.18;2.42;;;;;;;;;;6066529;23;20069;-75
2021/05/03 14:40:45;;;;;;;11.90;8.85;;;;;;;;;;6037242;23;20114;-75
2021/05/03 14:43:13;;;;;;;6.97;4.13;;;;;;;;;;6101585;23;20455;-73
2021/05/03 14:55:13;;;;;;;7.18;4.90;;;;;;;;;;6095640;23;20042;-74
2021/05/03 15:04:33;;;;;;;14.32;7.97;;;;;;;;;;6224290;22;20036;-73
2021/05/03 15:11:09;;;;;;;20.30;10.88;;;;;;;;;;6097814;23;20021;-73
2021/05/03 15:22:54;;;;;;;3.30;2.30;;;;;;;;;;6097673;23;20017;-71
2021/05/03 15:25:51;;;;;;;10.15;4.75;;;;;;;;;;6103978;23;20038;-75
2021/05/03 15:35:15;;;;;;;24.77;9.60;;;;;;;;;;6081906;23;20014;-72
2021/05/03 15:38:13;;;;;;;3.88;2.72;;;;;;;;;;6104805;23;20018;-72
2021/05/03 15:46:52;;;;;;;5.57;3.40;;;;;;;;;;6099885;23;20017;-70
2021/05/03 15:49:48;;;;;;;2.83;2.42;;;;;;;;;;6108244;23;20025;-70
2021/05/03 15:55:16;;;;;;;8.50;5.20;;;;;;;;;;6088136;23;20010;-73
2021/05/03 15:57:42;;;;;;;8.38;5.30;;;;;;;;;;6125567;23;20483;-72
2021/05/03 16:00:09;;;;;;;8.68;4.80;;;;;;;;;;6125516;23;20002;-71
2021/05/03 16:02:35;;;;;;;7.38;4.18;;;;;;;;;;6159082;23;20526;-70
2021/05/03 16:05:01;;;;;;;7.88;4.43;;;;;;;;;;6186661;23;20382;-71
2021/05/03 16:07:27;;;;;;;12.35;6.45;;;;;;;;;;6186946;23;20005;-71
2021/05/03 16:09:53;;;;;;;8.80;4.82;;;;;;;;;;6187035;23;20001;-72
2021/05/03 16:12:19;;;;;;;7.45;4.65;;;;;;;;;;6187114;23;20368;-72
2021/05/03 16:14:45;;;;;;;7.00;4.20;;;;;;;;;;6159602;23;20005;-74
2021/05/03 16:17:11;;;;;;;21.90;7.65;;;;;;;;;;6186675;23;20007;-73
2021/05/03 16:19:37;;;;;;;18.27;7.18;;;;;;;;;;6160583;23;19997;-73
2021/05/03 16:22:02;;;;;;;65.20;29.67;;;;;;;;;;6186904;23;20326;-73
2021/05/03 16:24:28;;;;;;;23.70;14.27;;;;;;;;;;6186857;23;20072;-73
2021/05/03 16:26:54;;;;;;;19.38;8.88;;;;;;;;;;6186636;23;20012;-71
2021/05/03 16:29:20;;;;;;;24.27;11.05;;;;;;;;;;6186819;23;20005;-72
2021/05/03 16:31:46;;;;;;;18.13;10.35;;;;;;;;;;6186611;23;20381;-72
2021/05/03 16:34:13;;;;;;;32.53;11.60;;;;;;;;;;6186760;23;20001;-71
2021/05/03 16:36:39;;;;;;;25.65;11.30;;;;;;;;;;6186659;23;20005;-73
2021/05/03 16:39:05;;;;;;;14.38;7.90;;;;;;;;;;6160438;23;20315;-75
2021/05/03 16:41:31;;;;;;;16.63;8.30;;;;;;;;;;6186713;23;20008;-72
2021/05/03 16:44:01;;;;;;;47.13;17.30;;;;;;;;;;6186717;23;20008;-72
2021/05/03 16:46:35;;;;;;;33.63;12.80;;;;;;;;;;6187866;23;20005;-79
2021/05/03 16:55:34;;;;;;;8.90;5.22;;;;;;;;;;5936185;24;20052;-73
2021/05/03 16:58:45;;;;;;;117.63;50.78;;;;;;;;;;5912961;24;20013;-74
2021/05/03 17:01:14;;;;;;;7.20;3.85;;;;;;;;;;5891210;24;20456;-76
2021/05/03 17:13:51;;;;;;;24.10;11.57;;;;;;;;;;6010040;23;20030;-72
2021/05/03 17:35:03;;;;;;;36.00;14.15;;;;;;;;;;6068114;23;19999;-73
2021/05/03 18:03:10;;;;;;;9.93;6.43;;;;;;;;;;6152737;23;20032;-72
2021/05/03 18:34:47;;;;;;;17.90;8.63;;;;;;;;;;6154313;23;20008;-75
2021/05/03 18:39:58;;;;;;;27.70;12.95;;;;;;;;;;6152767;23;20478;-75
2021/05/03 18:42:24;;;;;;;22.38;11.65;;;;;;;;;;6154242;23;20379;-76
2021/05/03 18:54:02;;;;;;;22.27;11.10;;;;;;;;;;6154756;23;20421;-74
2021/05/03 18:59:09;;;;;;;28.33;14.38;;;;;;;;;;6203240;23;20107;-71
2021/05/03 19:02:15;;;;;;;;;;;;;;;;;;;;;
2021/05/03 19:05:02;;;;;;;30.27;14.93;;;;;;;;;;6091364;23;20109;-73
2021/05/03 19:07:28;;;;;;;33.42;15.73;;;;;;;;;;6093327;23;20012;-71
2021/05/03 19:09:54;;;;;;;36.78;18.35;;;;;;;;;;6212892;23;20079;-73
2021/05/03 19:15:41;;;;;;;36.80;16.67;;;;;;;;;;6213933;23;20175;-74
2021/05/03 19:18:14;;;;;;;61.28;26.88;;;;;;;;;;6187168;23;20012;-74
2021/05/03 19:20:45;;;;;;;66.20;27.88;;;;;;;;;;6197385;23;20007;-75
2021/05/03 19:23:11;;;;;;;;;;;;;;;;;;6213528;23;20004;-75
2021/05/03 19:25:41;;;;;;;43.97;20.60;;;;;;;;;;6186331;23;19900;-74
2021/05/03 19:28:09;;;;;;;51.47;22.98;;;;;;;;;;6212969;23;20004;-75
2021/05/03 19:30:51;;;;;;;57.17;24.77;;;;;;;;;;6210244;23;20306;-73
2021/05/03 19:39:34;;;;;;;57.53;21.27;;;;;;;;;;6093527;23;20013;-73
2021/05/03 19:42:00;;;;;;;79.25;26.98;;;;;;;;;;6188122;23;20375;-71
2021/05/03 19:44:26;;;;;;;59.08;23.50;;;;;;;;;;6214581;23;19996;-71
2021/05/03 19:46:53;;;;;;;45.20;17.35;;;;;;;;;;6214750;23;20028;-71
2021/05/03 19:49:48;;;;;;;42.53;17.50;;;;;;;;;;6215091;23;20008;-70
2021/05/03 19:55:01;;;;;;;63.30;22.38;;;;;;;;;;6227416;23;20028;-71
2021/05/03 20:05:16;;;;;;;35.45;13.50;;;;;;;;;;6227091;23;20085;-70
2021/05/03 20:07:42;;;;;;;31.73;13.02;;;;;;;;;;6216590;23;20001;-70
2021/05/03 20:10:09;;;;;;;48.22;18.42;;;;;;;;;;6216797;23;20307;-71
2021/05/03 20:12:36;;;;;;;48.28;17.55;;;;;;;;;;6189952;23;20006;-70
2021/05/03 20:15:04;;;;;;;43.63;16.48;;;;;;;;;;6216937;23;20032;-72
2021/05/03 20:17:32;;;;;;;42.13;16.60;;;;;;;;;;6216798;23;20000;-71
2021/05/03 20:19:58;;;;;;;55.67;19.77;;;;;;;;;;6190149;23;20005;-72
2021/05/03 20:22:24;;;;;;;37.80;15.77;;;;;;;;;;6189154;23;20429;-72
2021/05/03 20:24:50;;;;;;;27.70;12.50;;;;;;;;;;6215371;23;20492;-71
